sensor_id;sensor_type;location;lat;lon;timestamp;temperature;humidity
4795;DHT22;2411;47.060;15.064;2022-12-18T00:01:21;-5.30;1.00
4795;DHT22;2411;47.060;15.064;2022-12-18T00:03:49;-5.20;1.80
4795;DHT22;2411;47.060;15.064;2022-12-18T00:06:17;-5.20;1.00
4795;DHT22;2411;47.060;15.064;2022-12-18T00:08:45;-5.20;1.00
4795;DHT22;2411;47.060;15.064;2022-12-18T00:11:15;-5.20;1.00
4795;DHT22;2411;47.060;15.064;2022-12-18T00:13:43;-5.20;1.00
4795;DHT22;2411;47.060;15.064;2022-12-18T00:16:13;-5.30;2.90
4795;DHT22;2411;47.060;15.064;2022-12-18T00:18:41;-5.30;2.60
4795;DHT22;2411;47.060;15.064;2022-12-18T00:21:10;-5.30;2.50
4795;DHT22;2411;47.060;15.064;2022-12-18T00:23:39;-5.20;2.10
4795;DHT22;2411;47.060;15.064;2022-12-18T00:26:12;-5.20;1.60
4795;DHT22;2411;47.060;15.064;2022-12-18T00:28:43;-5.10;1.40
4795;DHT22;2411;47.060;15.064;2022-12-18T00:31:14;-5.20;1.00
4795;DHT22;2411;47.060;15.064;2022-12-18T00:33:42;-5.40;1.00
4795;DHT22;2411;47.060;15.064;2022-12-18T00:36:15;-5.40;1.00
4795;DHT22;2411;47.060;15.064;2022-12-18T00:38:43;-5.40;1.00
4795;DHT22;2411;47.060;15.064;2022-12-18T00:41:12;-5.30;1.00
4795;DHT22;2411;47.060;15.064;2022-12-18T00:43:40;-5.20;1.00
4795;DHT22;2411;47.060;15.064;2022-12-18T00:46:07;-5.20;1.00
4795;DHT22;2411;47.060;15.064;2022-12-18T00:48:35;-5.20;1.00
4795;DHT22;2411;47.060;15.064;2022-12-18T00:51:02;-5.30;1.00
4795;DHT22;2411;47.060;15.064;2022-12-18T00:53:29;-5.50;1.00
4795;DHT22;2411;47.060;15.064;2022-12-18T00:55:56;-5.50;1.00
4795;DHT22;2411;47.060;15.064;2022-12-18T00:58:24;-5.50;1.00
4795;DHT22;2411;47.060;15.064;2022-12-18T01:00:51;-5.50;1.00
4795;DHT22;2411;47.060;15.064;2022-12-18T01:03:18;-5.60;1.90
4795;DHT22;2411;47.060;15.064;2022-12-18T01:05:45;-5.50;4.70
4795;DHT22;2411;47.060;15.064;2022-12-18T01:08:12;-5.50;4.70
4795;DHT22;2411;47.060;15.064;2022-12-18T01:10:40;-5.40;4.50
4795;DHT22;2411;47.060;15.064;2022-12-18T01:13:08;-5.50;4.00
4795;DHT22;2411;47.060;15.064;2022-12-18T01:15:36;-5.40;4.70
4795;DHT22;2411;47.060;15.064;2022-12-18T01:18:06;-5.30;4.50
4795;DHT22;2411;47.060;15.064;2022-12-18T01:20:33;-5.20;1.70
4795;DHT22;2411;47.060;15.064;2022-12-18T01:23:01;-5.20;1.00
4795;DHT22;2411;47.060;15.064;2022-12-18T01:25:28;-5.20;1.00
4795;DHT22;2411;47.060;15.064;2022-12-18T01:27:55;-5.20;1.00
4795;DHT22;2411;47.060;15.064;2022-12-18T01:30:22;-5.20;1.00
4795;DHT22;2411;47.060;15.064;2022-12-18T01:32:50;-5.30;1.00
4795;DHT22;2411;47.060;15.064;2022-12-18T01:35:17;-5.30;1.00
4795;DHT22;2411;47.060;15.064;2022-12-18T01:37:44;-5.40;1.00
4795;DHT22;2411;47.060;15.064;2022-12-18T01:40:12;-5.40;1.00
4795;DHT22;2411;47.060;15.064;2022-12-18T01:42:39;-5.50;1.00
4795;DHT22;2411;47.060;15.064;2022-12-18T01:48:02;-5.60;1.00
4795;DHT22;2411;47.060;15.064;2022-12-18T01:50:41;-5.50;1.00
4795;DHT22;2411;47.060;15.064;2022-12-18T01:53:17;-5.60;1.00
4795;DHT22;2411;47.060;15.064;2022-12-18T01:55:55;-5.70;1.00
4795;DHT22;2411;47.060;15.064;2022-12-18T02:01:08;-5.70;1.00
4795;DHT22;2411;47.060;15.064;2022-12-18T02:03:36;-5.70;1.00
4795;DHT22;2411;47.060;15.064;2022-12-18T02:06:13;-5.70;1.00
4795;DHT22;2411;47.060;15.064;2022-12-18T02:09:02;-5.70;1.00
4795;DHT22;2411;47.060;15.064;2022-12-18T02:11:49;-5.80;1.00
4795;DHT22;2411;47.060;15.064;2022-12-18T02:17:06;-5.80;1.00
4795;DHT22;2411;47.060;15.064;2022-12-18T02:27:22;-5.70;1.00
4795;DHT22;2411;47.060;15.064;2022-12-18T02:29:54;-5.70;1.00
4795;DHT22;2411;47.060;15.064;2022-12-18T02:32:27;-5.80;1.00
4795;DHT22;2411;47.060;15.064;2022-12-18T02:34:56;-5.90;1.00
4795;DHT22;2411;47.060;15.064;2022-12-18T02:37:25;-6.00;1.00
4795;DHT22;2411;47.060;15.064;2022-12-18T02:39:56;-6.00;1.00
4795;DHT22;2411;47.060;15.064;2022-12-18T02:42:25;-5.90;13.60
4795;DHT22;2411;47.060;15.064;2022-12-18T02:44:56;-5.90;1.00
4795;DHT22;2411;47.060;15.064;2022-12-18T02:47:27;-5.80;1.40
4795;DHT22;2411;47.060;15.064;2022-12-18T02:50:02;-5.80;1.00
4795;DHT22;2411;47.060;15.064;2022-12-18T02:52:52;-5.80;1.00
4795;DHT22;2411;47.060;15.064;2022-12-18T02:58:16;-5.70;1.00
4795;DHT22;2411;47.060;15.064;2022-12-18T03:03:56;-5.70;1.00
4795;DHT22;2411;47.060;15.064;2022-12-18T03:06:38;-5.60;1.00
4795;DHT22;2411;47.060;15.064;2022-12-18T03:09:11;-5.60;1.00
4795;DHT22;2411;47.060;15.064;2022-12-18T03:11:41;-5.70;1.00
4795;DHT22;2411;47.060;15.064;2022-12-18T03:14:30;-5.70;1.00
4795;DHT22;2411;47.060;15.064;2022-12-18T03:17:02;-5.80;1.00
4795;DHT22;2411;47.060;15.064;2022-12-18T03:19:32;-5.80;1.00
4795;DHT22;2411;47.060;15.064;2022-12-18T03:22:01;-5.90;1.00
4795;DHT22;2411;47.060;15.064;2022-12-18T03:24:31;-6.10;1.00
4795;DHT22;2411;47.060;15.064;2022-12-18T03:27:06;-6.30;1.00
4795;DHT22;2411;47.060;15.064;2022-12-18T03:29:47;-6.30;1.00
4795;DHT22;2411;47.060;15.064;2022-12-18T03:32:23;-6.20;3.20
4795;DHT22;2411;47.060;15.064;2022-12-18T03:34:52;-6.10;3.60
4795;DHT22;2411;47.060;15.064;2022-12-18T03:37:20;-6.00;3.10
4795;DHT22;2411;47.060;15.064;2022-12-18T03:39:48;-6.10;2.00
4795;DHT22;2411;47.060;15.064;2022-12-18T03:42:15;-6.10;1.60
4795;DHT22;2411;47.060;15.064;2022-12-18T03:45:13;-6.00;1.40
4795;DHT22;2411;47.060;15.064;2022-12-18T03:48:12;-6.00;1.00
4795;DHT22;2411;47.060;15.064;2022-12-18T03:53:31;-5.90;1.10
4795;DHT22;2411;47.060;15.064;2022-12-18T03:56:01;-6.00;1.00
4795;DHT22;2411;47.060;15.064;2022-12-18T03:58:31;-6.00;1.00
4795;DHT22;2411;47.060;15.064;2022-12-18T04:01:02;-6.00;1.00
4795;DHT22;2411;47.060;15.064;2022-12-18T04:03:32;-6.00;1.00
4795;DHT22;2411;47.060;15.064;2022-12-18T04:06:03;-6.00;1.00
4795;DHT22;2411;47.060;15.064;2022-12-18T04:08:31;-6.00;1.00
4795;DHT22;2411;47.060;15.064;2022-12-18T04:10:59;-6.10;1.00
4795;DHT22;2411;47.060;15.064;2022-12-18T04:13:35;-6.30;1.00
4795;DHT22;2411;47.060;15.064;2022-12-18T04:16:03;-6.40;1.00
4795;DHT22;2411;47.060;15.064;2022-12-18T04:18:30;-6.40;1.00
4795;DHT22;2411;47.060;15.064;2022-12-18T04:20:58;-6.30;1.00
4795;DHT22;2411;47.060;15.064;2022-12-18T04:23:25;-6.30;1.00
4795;DHT22;2411;47.060;15.064;2022-12-18T04:25:52;-6.30;1.00
4795;DHT22;2411;47.060;15.064;2022-12-18T04:28:19;-6.30;1.00
4795;DHT22;2411;47.060;15.064;2022-12-18T04:30:50;-6.30;1.00
4795;DHT22;2411;47.060;15.064;2022-12-18T04:33:18;-6.40;1.00
4795;DHT22;2411;47.060;15.064;2022-12-18T04:35:45;-6.20;1.00
4795;DHT22;2411;47.060;15.064;2022-12-18T04:38:12;-6.20;1.00
4795;DHT22;2411;47.060;15.064;2022-12-18T04:40:39;-6.20;1.00
4795;DHT22;2411;47.060;15.064;2022-12-18T04:43:07;-6.30;1.00
4795;DHT22;2411;47.060;15.064;2022-12-18T04:45:35;-6.40;1.00
4795;DHT22;2411;47.060;15.064;2022-12-18T04:48:03;-6.40;1.00
4795;DHT22;2411;47.060;15.064;2022-12-18T04:50:31;-6.40;1.00
4795;DHT22;2411;47.060;15.064;2022-12-18T04:52:58;-6.40;1.00
4795;DHT22;2411;47.060;15.064;2022-12-18T04:55:25;-6.60;1.00
4795;DHT22;2411;47.060;15.064;2022-12-18T04:57:53;-6.50;1.00
4795;DHT22;2411;47.060;15.064;2022-12-18T05:00:20;-6.60;1.00
4795;DHT22;2411;47.060;15.064;2022-12-18T05:02:48;-6.60;1.00
4795;DHT22;2411;47.060;15.064;2022-12-18T05:05:15;-6.70;1.00
4795;DHT22;2411;47.060;15.064;2022-12-18T05:07:42;-6.60;1.00
4795;DHT22;2411;47.060;15.064;2022-12-18T05:10:09;-6.50;3.20
4795;DHT22;2411;47.060;15.064;2022-12-18T05:12:37;-6.50;4.20
4795;DHT22;2411;47.060;15.064;2022-12-18T05:15:29;-6.50;4.20
4795;DHT22;2411;47.060;15.064;2022-12-18T05:17:58;-6.50;4.30
4795;DHT22;2411;47.060;15.064;2022-12-18T05:20:26;-6.50;2.10
4795;DHT22;2411;47.060;15.064;2022-12-18T05:22:54;-6.50;1.00
4795;DHT22;2411;47.060;15.064;2022-12-18T05:25:22;-6.50;1.00
4795;DHT22;2411;47.060;15.064;2022-12-18T05:27:50;-6.50;1.00
4795;DHT22;2411;47.060;15.064;2022-12-18T05:30:17;-6.40;1.00
4795;DHT22;2411;47.060;15.064;2022-12-18T05:32:44;-6.30;1.00
4795;DHT22;2411;47.060;15.064;2022-12-18T05:35:11;-6.20;1.00
4795;DHT22;2411;47.060;15.064;2022-12-18T05:37:39;-6.30;1.00
4795;DHT22;2411;47.060;15.064;2022-12-18T05:40:10;-6.30;1.00
4795;DHT22;2411;47.060;15.064;2022-12-18T05:42:38;-6.40;1.00
4795;DHT22;2411;47.060;15.064;2022-12-18T05:45:06;-6.40;1.00
4795;DHT22;2411;47.060;15.064;2022-12-18T05:47:33;-6.60;1.00
4795;DHT22;2411;47.060;15.064;2022-12-18T05:50:01;-6.70;1.00
4795;DHT22;2411;47.060;15.064;2022-12-18T05:52:28;-6.70;1.00
4795;DHT22;2411;47.060;15.064;2022-12-18T05:54:55;-6.80;1.00
4795;DHT22;2411;47.060;15.064;2022-12-18T05:57:22;-6.80;1.00
4795;DHT22;2411;47.060;15.064;2022-12-18T05:59:50;-6.80;1.00
4795;DHT22;2411;47.060;15.064;2022-12-18T06:02:17;-6.90;1.00
4795;DHT22;2411;47.060;15.064;2022-12-18T06:04:44;-6.90;1.00
4795;DHT22;2411;47.060;15.064;2022-12-18T06:07:12;-6.80;1.00
4795;DHT22;2411;47.060;15.064;2022-12-18T06:09:39;-6.80;1.00
4795;DHT22;2411;47.060;15.064;2022-12-18T06:12:06;-6.80;1.00
4795;DHT22;2411;47.060;15.064;2022-12-18T06:14:33;-6.80;1.00
4795;DHT22;2411;47.060;15.064;2022-12-18T06:17:00;-6.70;1.00
4795;DHT22;2411;47.060;15.064;2022-12-18T06:19:28;-6.60;1.60
4795;DHT22;2411;47.060;15.064;2022-12-18T06:21:55;-6.60;1.00
4795;DHT22;2411;47.060;15.064;2022-12-18T06:24:24;-6.70;1.00
4795;DHT22;2411;47.060;15.064;2022-12-18T06:26:52;-6.70;1.00
4795;DHT22;2411;47.060;15.064;2022-12-18T06:29:19;-6.80;1.00
4795;DHT22;2411;47.060;15.064;2022-12-18T06:31:46;-6.90;1.00
4795;DHT22;2411;47.060;15.064;2022-12-18T06:34:13;-7.00;1.00
4795;DHT22;2411;47.060;15.064;2022-12-18T06:36:40;-7.00;1.00
4795;DHT22;2411;47.060;15.064;2022-12-18T06:39:08;-7.10;1.00
4795;DHT22;2411;47.060;15.064;2022-12-18T06:41:35;-7.20;1.00
4795;DHT22;2411;47.060;15.064;2022-12-18T06:44:02;-7.20;1.00
4795;DHT22;2411;47.060;15.064;2022-12-18T06:46:29;-7.20;1.40
4795;DHT22;2411;47.060;15.064;2022-12-18T06:48:57;-7.30;1.50
4795;DHT22;2411;47.060;15.064;2022-12-18T06:51:24;-7.40;1.00
4795;DHT22;2411;47.060;15.064;2022-12-18T06:53:52;-7.30;3.10
4795;DHT22;2411;47.060;15.064;2022-12-18T06:56:19;-7.20;3.10
4795;DHT22;2411;47.060;15.064;2022-12-18T06:58:46;-7.20;2.10
4795;DHT22;2411;47.060;15.064;2022-12-18T07:01:13;-7.20;2.40
4795;DHT22;2411;47.060;15.064;2022-12-18T07:03:42;-7.10;2.30
4795;DHT22;2411;47.060;15.064;2022-12-18T07:06:16;-7.20;1.00
4795;DHT22;2411;47.060;15.064;2022-12-18T07:08:44;-7.10;2.70
4795;DHT22;2411;47.060;15.064;2022-12-18T07:11:12;-7.10;1.80
4795;DHT22;2411;47.060;15.064;2022-12-18T07:13:39;-7.10;2.70
4795;DHT22;2411;47.060;15.064;2022-12-18T07:16:12;-7.10;3.40
4795;DHT22;2411;47.060;15.064;2022-12-18T07:18:48;-7.00;5.10
4795;DHT22;2411;47.060;15.064;2022-12-18T07:21:18;-6.90;4.80
4795;DHT22;2411;47.060;15.064;2022-12-18T07:23:46;-6.90;3.70
4795;DHT22;2411;47.060;15.064;2022-12-18T07:26:18;-6.80;5.40
4795;DHT22;2411;47.060;15.064;2022-12-18T07:28:46;-6.70;4.80
4795;DHT22;2411;47.060;15.064;2022-12-18T07:31:15;-6.70;3.50
4795;DHT22;2411;47.060;15.064;2022-12-18T07:33:45;-6.60;4.10
4795;DHT22;2411;47.060;15.064;2022-12-18T07:36:13;-6.50;4.70
4795;DHT22;2411;47.060;15.064;2022-12-18T07:38:40;-6.50;4.20
4795;DHT22;2411;47.060;15.064;2022-12-18T07:41:10;-6.40;5.80
4795;DHT22;2411;47.060;15.064;2022-12-18T07:43:38;-6.30;4.40
4795;DHT22;2411;47.060;15.064;2022-12-18T07:46:09;-6.30;5.30
4795;DHT22;2411;47.060;15.064;2022-12-18T07:48:38;-6.20;7.00
4795;DHT22;2411;47.060;15.064;2022-12-18T07:51:06;-6.10;8.50
4795;DHT22;2411;47.060;15.064;2022-12-18T07:53:35;-6.10;8.80
4795;DHT22;2411;47.060;15.064;2022-12-18T07:56:06;-6.00;10.20
4795;DHT22;2411;47.060;15.064;2022-12-18T07:58:54;-5.90;12.60
4795;DHT22;2411;47.060;15.064;2022-12-18T08:01:21;-5.80;12.70
4795;DHT22;2411;47.060;15.064;2022-12-18T08:03:49;-5.80;13.10
4795;DHT22;2411;47.060;15.064;2022-12-18T08:06:18;-5.70;12.30
4795;DHT22;2411;47.060;15.064;2022-12-18T08:08:53;-5.70;11.10
4795;DHT22;2411;47.060;15.064;2022-12-18T08:11:22;-5.70;10.80
4795;DHT22;2411;47.060;15.064;2022-12-18T08:13:50;-5.70;10.40
4795;DHT22;2411;47.060;15.064;2022-12-18T08:16:18;-5.60;11.70
4795;DHT22;2411;47.060;15.064;2022-12-18T08:18:47;-5.50;13.10
4795;DHT22;2411;47.060;15.064;2022-12-18T08:21:17;-5.50;13.40
4795;DHT22;2411;47.060;15.064;2022-12-18T08:23:47;-5.40;13.50
4795;DHT22;2411;47.060;15.064;2022-12-18T08:26:17;-5.40;13.10
4795;DHT22;2411;47.060;15.064;2022-12-18T08:28:45;-5.30;13.20
4795;DHT22;2411;47.060;15.064;2022-12-18T08:31:13;-5.30;10.30
4795;DHT22;2411;47.060;15.064;2022-12-18T08:33:41;-5.20;12.10
4795;DHT22;2411;47.060;15.064;2022-12-18T08:36:10;-5.10;23.20
4795;DHT22;2411;47.060;15.064;2022-12-18T08:38:37;-5.10;9.10
4795;DHT22;2411;47.060;15.064;2022-12-18T08:41:06;-5.00;8.40
4795;DHT22;2411;47.060;15.064;2022-12-18T08:43:33;-4.90;9.30
4795;DHT22;2411;47.060;15.064;2022-12-18T08:46:21;-4.90;12.20
4795;DHT22;2411;47.060;15.064;2022-12-18T08:48:51;-4.80;10.80
4795;DHT22;2411;47.060;15.064;2022-12-18T08:51:19;-4.70;13.60
4795;DHT22;2411;47.060;15.064;2022-12-18T08:53:46;-4.60;15.00
4795;DHT22;2411;47.060;15.064;2022-12-18T08:56:14;-4.50;14.20
4795;DHT22;2411;47.060;15.064;2022-12-18T08:58:42;-4.50;17.20
4795;DHT22;2411;47.060;15.064;2022-12-18T09:01:10;-4.50;11.20
4795;DHT22;2411;47.060;15.064;2022-12-18T09:03:39;-4.40;10.30
4795;DHT22;2411;47.060;15.064;2022-12-18T09:06:07;-4.30;10.70
4795;DHT22;2411;47.060;15.064;2022-12-18T09:08:35;-4.30;10.00
4795;DHT22;2411;47.060;15.064;2022-12-18T09:11:04;-4.20;8.50
4795;DHT22;2411;47.060;15.064;2022-12-18T09:13:31;-4.20;8.20
4795;DHT22;2411;47.060;15.064;2022-12-18T09:15:58;-4.10;11.10
4795;DHT22;2411;47.060;15.064;2022-12-18T09:18:26;-4.00;12.90
4795;DHT22;2411;47.060;15.064;2022-12-18T09:20:53;-3.90;16.40
4795;DHT22;2411;47.060;15.064;2022-12-18T09:23:20;-3.90;14.90
4795;DHT22;2411;47.060;15.064;2022-12-18T09:25:48;-3.80;17.10
4795;DHT22;2411;47.060;15.064;2022-12-18T09:28:18;-3.70;16.60
4795;DHT22;2411;47.060;15.064;2022-12-18T09:30:47;-3.60;16.10
4795;DHT22;2411;47.060;15.064;2022-12-18T09:33:16;-3.60;14.50
4795;DHT22;2411;47.060;15.064;2022-12-18T09:35:45;-3.50;14.50
4795;DHT22;2411;47.060;15.064;2022-12-18T09:38:15;-3.50;9.90
4795;DHT22;2411;47.060;15.064;2022-12-18T09:40:45;-3.50;7.00
4795;DHT22;2411;47.060;15.064;2022-12-18T09:43:26;-3.40;7.20
4795;DHT22;2411;47.060;15.064;2022-12-18T09:46:00;-3.30;7.00
4795;DHT22;2411;47.060;15.064;2022-12-18T09:48:46;-3.30;6.70
4795;DHT22;2411;47.060;15.064;2022-12-18T09:51:22;-3.30;6.40
4795;DHT22;2411;47.060;15.064;2022-12-18T09:53:55;-3.20;7.50
4795;DHT22;2411;47.060;15.064;2022-12-18T09:56:25;-3.20;7.50
4795;DHT22;2411;47.060;15.064;2022-12-18T09:59:02;-3.10;5.00
4795;DHT22;2411;47.060;15.064;2022-12-18T10:01:31;-3.10;3.00
4795;DHT22;2411;47.060;15.064;2022-12-18T10:04:09;-3.00;5.10
4795;DHT22;2411;47.060;15.064;2022-12-18T10:09:33;-2.90;5.50
4795;DHT22;2411;47.060;15.064;2022-12-18T10:12:47;-2.90;3.20
4795;DHT22;2411;47.060;15.064;2022-12-18T10:15:24;-2.80;3.90
4795;DHT22;2411;47.060;15.064;2022-12-18T10:17:56;-2.70;4.00
4795;DHT22;2411;47.060;15.064;2022-12-18T10:20:30;-2.70;1.80
4795;DHT22;2411;47.060;15.064;2022-12-18T10:23:26;-2.70;1.00
4795;DHT22;2411;47.060;15.064;2022-12-18T10:26:00;-2.60;1.40
4795;DHT22;2411;47.060;15.064;2022-12-18T10:28:30;-2.60;1.20
4795;DHT22;2411;47.060;15.064;2022-12-18T10:30:58;-2.50;1.50
4795;DHT22;2411;47.060;15.064;2022-12-18T10:33:30;-2.50;1.00
4795;DHT22;2411;47.060;15.064;2022-12-18T10:35:59;-2.50;1.00
4795;DHT22;2411;47.060;15.064;2022-12-18T10:38:30;-2.40;1.00
4795;DHT22;2411;47.060;15.064;2022-12-18T10:40:58;-2.50;1.00
4795;DHT22;2411;47.060;15.064;2022-12-18T10:43:32;-2.40;1.00
4795;DHT22;2411;47.060;15.064;2022-12-18T10:46:04;-2.30;1.90
4795;DHT22;2411;47.060;15.064;2022-12-18T10:48:47;-2.30;2.50
4795;DHT22;2411;47.060;15.064;2022-12-18T10:51:36;-2.20;1.00
4795;DHT22;2411;47.060;15.064;2022-12-18T10:54:04;-2.20;1.00
4795;DHT22;2411;47.060;15.064;2022-12-18T10:56:34;-2.20;1.00
4795;DHT22;2411;47.060;15.064;2022-12-18T10:59:08;-2.20;1.00
4795;DHT22;2411;47.060;15.064;2022-12-18T11:01:50;-2.20;1.20
4795;DHT22;2411;47.060;15.064;2022-12-18T11:04:29;-2.10;1.00
4795;DHT22;2411;47.060;15.064;2022-12-18T11:07:04;-2.10;1.00
4795;DHT22;2411;47.060;15.064;2022-12-18T11:09:32;-2.10;1.00
4795;DHT22;2411;47.060;15.064;2022-12-18T11:12:02;-2.10;1.00
4795;DHT22;2411;47.060;15.064;2022-12-18T11:14:53;-2.00;1.00
4795;DHT22;2411;47.060;15.064;2022-12-18T11:17:42;-1.90;1.00
4795;DHT22;2411;47.060;15.064;2022-12-18T11:20:34;-1.90;1.00
4795;DHT22;2411;47.060;15.064;2022-12-18T11:23:05;-1.80;1.00
4795;DHT22;2411;47.060;15.064;2022-12-18T11:25:37;-1.80;1.00
4795;DHT22;2411;47.060;15.064;2022-12-18T11:28:28;-1.80;1.00
4795;DHT22;2411;47.060;15.064;2022-12-18T11:34:44;-1.80;1.00
4795;DHT22;2411;47.060;15.064;2022-12-18T11:36:55;-1.70;1.00
4795;DHT22;2411;47.060;15.064;2022-12-18T11:39:39;-1.70;1.00
4795;DHT22;2411;47.060;15.064;2022-12-18T11:42:18;-1.60;1.00
4795;DHT22;2411;47.060;15.064;2022-12-18T11:47:25;-1.60;1.00
4795;DHT22;2411;47.060;15.064;2022-12-18T11:49:55;-1.70;1.00
4795;DHT22;2411;47.060;15.064;2022-12-18T11:52:52;-1.60;1.00
4795;DHT22;2411;47.060;15.064;2022-12-18T11:55:35;-1.50;1.00
4795;DHT22;2411;47.060;15.064;2022-12-18T12:00:47;-1.30;1.70
4795;DHT22;2411;47.060;15.064;2022-12-18T12:17:59;-1.20;1.00
4795;DHT22;2411;47.060;15.064;2022-12-18T12:20:24;-1.20;1.50
4795;DHT22;2411;47.060;15.064;2022-12-18T12:26:06;-1.30;1.50
4795;DHT22;2411;47.060;15.064;2022-12-18T12:38:58;-1.40;2.90
4795;DHT22;2411;47.060;15.064;2022-12-18T12:41:30;-1.50;1.00
4795;DHT22;2411;47.060;15.064;2022-12-18T12:44:53;-1.50;1.40
4795;DHT22;2411;47.060;15.064;2022-12-18T12:47:32;-1.50;1.00
4795;DHT22;2411;47.060;15.064;2022-12-18T12:50:03;-1.60;1.00
4795;DHT22;2411;47.060;15.064;2022-12-18T12:52:44;-1.60;1.30
4795;DHT22;2411;47.060;15.064;2022-12-18T12:55:29;-1.60;1.50
4795;DHT22;2411;47.060;15.064;2022-12-18T12:58:15;-1.50;3.00
4795;DHT22;2411;47.060;15.064;2022-12-18T13:03:51;-1.60;1.60
4795;DHT22;2411;47.060;15.064;2022-12-18T13:09:00;-1.60;1.00
4795;DHT22;2411;47.060;15.064;2022-12-18T13:14:41;-1.90;1.00
4795;DHT22;2411;47.060;15.064;2022-12-18T13:20:14;-2.20;1.00
4795;DHT22;2411;47.060;15.064;2022-12-18T13:34:22;-2.10;2.80
4795;DHT22;2411;47.060;15.064;2022-12-18T13:36:56;-2.10;3.10
4795;DHT22;2411;47.060;15.064;2022-12-18T13:39:33;-2.10;2.50
4795;DHT22;2411;47.060;15.064;2022-12-18T13:47:37;-2.00;3.40
4795;DHT22;2411;47.060;15.064;2022-12-18T13:50:25;-2.00;3.00
4795;DHT22;2411;47.060;15.064;2022-12-18T13:53:01;-2.10;3.80
4795;DHT22;2411;47.060;15.064;2022-12-18T13:55:29;-2.10;3.90
4795;DHT22;2411;47.060;15.064;2022-12-18T13:58:04;-2.10;3.90
4795;DHT22;2411;47.060;15.064;2022-12-18T14:00:31;-2.10;4.50
4795;DHT22;2411;47.060;15.064;2022-12-18T14:03:00;-2.10;4.20
4795;DHT22;2411;47.060;15.064;2022-12-18T14:08:12;-2.10;4.80
4795;DHT22;2411;47.060;15.064;2022-12-18T14:10:42;-2.20;4.00
4795;DHT22;2411;47.060;15.064;2022-12-18T14:13:22;-2.20;5.70
4795;DHT22;2411;47.060;15.064;2022-12-18T14:15:50;-2.20;4.00
4795;DHT22;2411;47.060;15.064;2022-12-18T14:18:53;-2.20;6.00
4795;DHT22;2411;47.060;15.064;2022-12-18T14:21:29;-2.20;4.50
4795;DHT22;2411;47.060;15.064;2022-12-18T14:24:12;-2.20;5.10
4795;DHT22;2411;47.060;15.064;2022-12-18T14:26:41;-2.20;6.10
4795;DHT22;2411;47.060;15.064;2022-12-18T14:29:34;-2.20;5.20
4795;DHT22;2411;47.060;15.064;2022-12-18T14:32:09;-2.30;5.20
4795;DHT22;2411;47.060;15.064;2022-12-18T14:34:48;-2.30;5.20
4795;DHT22;2411;47.060;15.064;2022-12-18T14:37:20;-2.40;19.10
4795;DHT22;2411;47.060;15.064;2022-12-18T14:39:57;-2.50;4.30
4795;DHT22;2411;47.060;15.064;2022-12-18T14:42:26;-2.50;5.20
4795;DHT22;2411;47.060;15.064;2022-12-18T14:48:54;-2.40;6.30
4795;DHT22;2411;47.060;15.064;2022-12-18T14:50:59;-2.40;5.50
4795;DHT22;2411;47.060;15.064;2022-12-18T14:56:14;-2.60;7.30
4795;DHT22;2411;47.060;15.064;2022-12-18T14:58:59;-2.60;7.20
4795;DHT22;2411;47.060;15.064;2022-12-18T15:01:34;-2.60;5.60
4795;DHT22;2411;47.060;15.064;2022-12-18T15:04:03;-2.60;6.60
4795;DHT22;2411;47.060;15.064;2022-12-18T15:08:59;-2.50;7.20
4795;DHT22;2411;47.060;15.064;2022-12-18T15:11:34;-2.60;6.20
4795;DHT22;2411;47.060;15.064;2022-12-18T15:14:30;-2.50;6.10
4795;DHT22;2411;47.060;15.064;2022-12-18T15:16:59;-2.50;6.10
4795;DHT22;2411;47.060;15.064;2022-12-18T15:19:40;-2.40;6.80
4795;DHT22;2411;47.060;15.064;2022-12-18T15:22:27;-2.40;6.80
4795;DHT22;2411;47.060;15.064;2022-12-18T15:24:56;-2.50;4.90
4795;DHT22;2411;47.060;15.064;2022-12-18T15:27:32;-2.50;5.10
4795;DHT22;2411;47.060;15.064;2022-12-18T15:30:19;-2.50;6.50
4795;DHT22;2411;47.060;15.064;2022-12-18T15:32:48;-2.40;6.00
4795;DHT22;2411;47.060;15.064;2022-12-18T15:35:25;-2.40;5.50
4795;DHT22;2411;47.060;15.064;2022-12-18T15:37:52;-2.40;6.10
4795;DHT22;2411;47.060;15.064;2022-12-18T15:40:21;-2.40;4.90
4795;DHT22;2411;47.060;15.064;2022-12-18T15:42:53;-2.40;5.40
4795;DHT22;2411;47.060;15.064;2022-12-18T15:45:40;-2.40;4.90
4795;DHT22;2411;47.060;15.064;2022-12-18T15:48:22;-2.40;4.70
4795;DHT22;2411;47.060;15.064;2022-12-18T15:50:53;-2.40;4.20
4795;DHT22;2411;47.060;15.064;2022-12-18T15:53:25;-2.50;4.80
4795;DHT22;2411;47.060;15.064;2022-12-18T15:55:52;-2.50;5.20
4795;DHT22;2411;47.060;15.064;2022-12-18T15:58:38;-2.50;3.10
4795;DHT22;2411;47.060;15.064;2022-12-18T16:01:08;-2.50;4.50
4795;DHT22;2411;47.060;15.064;2022-12-18T16:03:36;-2.50;4.50
4795;DHT22;2411;47.060;15.064;2022-12-18T16:06:03;-2.40;5.90
4795;DHT22;2411;47.060;15.064;2022-12-18T16:08:31;-2.40;5.00
4795;DHT22;2411;47.060;15.064;2022-12-18T16:10:59;-2.40;5.00
4795;DHT22;2411;47.060;15.064;2022-12-18T16:13:26;-2.40;4.60
4795;DHT22;2411;47.060;15.064;2022-12-18T16:15:55;-2.50;4.10
4795;DHT22;2411;47.060;15.064;2022-12-18T16:18:23;-2.50;4.10
4795;DHT22;2411;47.060;15.064;2022-12-18T16:20:50;-2.50;4.50
4795;DHT22;2411;47.060;15.064;2022-12-18T16:23:17;-2.50;5.50
4795;DHT22;2411;47.060;15.064;2022-12-18T16:25:44;-2.40;5.40
4795;DHT22;2411;47.060;15.064;2022-12-18T16:28:12;-2.40;5.40
4795;DHT22;2411;47.060;15.064;2022-12-18T16:30:39;-2.50;4.50
4795;DHT22;2411;47.060;15.064;2022-12-18T16:33:09;-2.50;4.80
4795;DHT22;2411;47.060;15.064;2022-12-18T16:35:37;-2.40;5.80
4795;DHT22;2411;47.060;15.064;2022-12-18T16:38:04;-2.50;18.20
4795;DHT22;2411;47.060;15.064;2022-12-18T16:40:32;-2.50;4.80
4795;DHT22;2411;47.060;15.064;2022-12-18T16:42:59;-2.50;5.00
4795;DHT22;2411;47.060;15.064;2022-12-18T16:45:28;-2.60;4.50
4795;DHT22;2411;47.060;15.064;2022-12-18T16:48:00;-2.50;5.10
4795;DHT22;2411;47.060;15.064;2022-12-18T16:50:27;-2.50;4.00
4795;DHT22;2411;47.060;15.064;2022-12-18T16:52:54;-2.60;2.70
4795;DHT22;2411;47.060;15.064;2022-12-18T16:55:27;-2.50;2.80
4795;DHT22;2411;47.060;15.064;2022-12-18T16:57:55;-2.60;4.10
4795;DHT22;2411;47.060;15.064;2022-12-18T17:00:22;-2.60;4.90
4795;DHT22;2411;47.060;15.064;2022-12-18T17:02:49;-2.50;4.10
4795;DHT22;2411;47.060;15.064;2022-12-18T17:05:17;-2.40;3.90
4795;DHT22;2411;47.060;15.064;2022-12-18T17:07:47;-2.50;4.50
4795;DHT22;2411;47.060;15.064;2022-12-18T17:10:15;-2.50;3.30
4795;DHT22;2411;47.060;15.064;2022-12-18T17:12:43;-2.60;3.80
4795;DHT22;2411;47.060;15.064;2022-12-18T17:15:10;-2.60;4.40
4795;DHT22;2411;47.060;15.064;2022-12-18T17:17:38;-2.50;5.20
4795;DHT22;2411;47.060;15.064;2022-12-18T17:20:06;-2.40;5.50
4795;DHT22;2411;47.060;15.064;2022-12-18T17:22:33;-2.50;5.10
4795;DHT22;2411;47.060;15.064;2022-12-18T17:25:01;-2.40;5.30
4795;DHT22;2411;47.060;15.064;2022-12-18T17:27:31;-2.40;4.60
4795;DHT22;2411;47.060;15.064;2022-12-18T17:29:58;-2.40;5.70
4795;DHT22;2411;47.060;15.064;2022-12-18T17:32:26;-2.50;4.60
4795;DHT22;2411;47.060;15.064;2022-12-18T17:34:54;-2.40;5.70
4795;DHT22;2411;47.060;15.064;2022-12-18T17:37:21;-2.40;4.60
4795;DHT22;2411;47.060;15.064;2022-12-18T17:39:58;-2.50;5.00
4795;DHT22;2411;47.060;15.064;2022-12-18T17:42:27;-2.50;4.80
4795;DHT22;2411;47.060;15.064;2022-12-18T17:44:55;-2.50;4.20
4795;DHT22;2411;47.060;15.064;2022-12-18T17:47:25;-2.40;4.60
4795;DHT22;2411;47.060;15.064;2022-12-18T17:49:53;-2.50;4.60
4795;DHT22;2411;47.060;15.064;2022-12-18T17:52:23;-2.50;4.30
4795;DHT22;2411;47.060;15.064;2022-12-18T17:54:51;-2.50;4.10
4795;DHT22;2411;47.060;15.064;2022-12-18T17:57:19;-2.50;4.20
4795;DHT22;2411;47.060;15.064;2022-12-18T17:59:49;-2.50;3.40
4795;DHT22;2411;47.060;15.064;2022-12-18T18:02:17;-2.50;3.10
4795;DHT22;2411;47.060;15.064;2022-12-18T18:04:46;-2.50;2.90
4795;DHT22;2411;47.060;15.064;2022-12-18T18:07:13;-2.50;3.40
4795;DHT22;2411;47.060;15.064;2022-12-18T18:09:41;-2.60;2.90
4795;DHT22;2411;47.060;15.064;2022-12-18T18:12:08;-2.60;2.50